Time;durP1;ratioP1;P1;durP2;ratioP2;P2;SDS_P1;SDS_P2;PMS_P1;PMS_P2;Temp;Humidity;BMP_temperature;BMP_pressure;BME280_temperature;BME280_humidity;BME280_pressure;Samples;Min_cycle;Max_cycle;Signal;HPM_P1;HPM_P2
2023/05/29 00:01:50;;;;;;;;;0.00;0.00;;;;;-146.67;29.00;74096.66;5063110;28;61831;-83
2023/05/29 00:04:15;;;;;;;;;0.00;0.00;;;;;-146.67;29.36;74106.63;5044302;28;65131;-83
2023/05/29 00:06:41;;;;;;;;;0.00;0.00;;;;;-146.67;29.62;74102.63;5063133;28;61820;-83
2023/05/29 00:09:06;;;;;;;;;0.00;0.00;;;;;-146.67;29.46;74116.59;5062963;28;61789;-82
2023/05/29 00:11:32;;;;;;;;;0.00;0.00;;;;;-146.67;29.46;74118.59;5063298;28;61963;-83
2023/05/29 00:13:57;;;;;;;;;0.00;0.00;;;;;-146.67;29.52;74138.56;5044109;28;65118;-82
2023/05/29 00:16:23;;;;;;;;;0.00;0.00;;;;;-146.67;29.63;74132.56;5062551;28;61986;-82
2023/05/29 00:18:49;;;;;;;;;0.00;0.00;;;;;-146.67;29.67;74138.56;5062633;28;61788;-82
2023/05/29 00:21:15;;;;;;;;;0.00;0.00;;;;;-146.67;29.62;74142.56;5044613;28;62152;-83
2023/05/29 00:23:41;;;;;;;;;0.00;0.00;;;;;-146.67;29.82;74152.53;5062539;28;62670;-82
2023/05/29 00:26:07;;;;;;;;;0.00;0.00;;;;;-146.67;29.69;74162.53;5061807;28;61911;-83
2023/05/29 00:28:32;;;;;;;;;0.00;0.00;;;;;-146.67;29.92;74166.50;5062460;28;61865;-83
2023/05/29 00:30:58;;;;;;;;;0.00;0.00;;;;;-146.67;29.64;74172.50;5062532;28;62193;-82
2023/05/29 00:33:23;;;;;;;;;0.00;0.00;;;;;-146.67;29.66;74186.47;5062084;28;61713;-82
2023/05/29 00:35:49;;;;;;;;;0.00;0.00;;;;;-146.67;29.92;74192.47;5044709;28;61893;-83
2023/05/29 00:38:14;;;;;;;;;0.00;0.00;;;;;-146.67;29.86;74196.47;5044384;28;62056;-83
2023/05/29 00:40:40;;;;;;;;;0.00;0.00;;;;;-146.67;29.71;74188.47;5062825;28;61744;-83
2023/05/29 00:43:05;;;;;;;;;4.00;0.00;;;;;-146.67;29.68;74198.47;5061398;28;62100;-82
2023/05/29 00:45:31;;;;;;;;;0.00;0.00;;;;;-146.67;30.00;74200.44;5062146;28;61795;-83
2023/05/29 00:47:57;;;;;;;;;0.00;0.00;;;;;-146.67;29.75;74212.44;5062495;28;61738;-82
2023/05/29 00:50:23;;;;;;;;;0.00;0.00;;;;;-146.67;29.98;74216.44;5044301;28;62086;-82
2023/05/29 00:52:50;;;;;;;;;0.00;0.00;;;;;-146.67;29.84;74218.41;5061501;28;61987;-82
2023/05/29 00:55:16;;;;;;;;;0.00;0.00;;;;;-146.67;29.98;74218.41;5061608;28;61753;-82
2023/05/29 00:57:42;;;;;;;;;0.00;0.00;;;;;-146.67;29.89;74234.38;5060925;28;62018;-83
2023/05/29 01:00:09;;;;;;;;;0.00;0.00;;;;;-146.67;29.95;74240.38;5060843;28;61878;-82
2023/05/29 01:02:37;;;;;;;;;0.00;0.00;;;;;-146.67;30.12;74236.38;5060884;28;61876;-82
2023/05/29 01:05:03;;;;;;;;;0.00;0.00;;;;;-146.67;30.06;74238.38;5061663;28;61788;-82
2023/05/29 01:07:28;;;;;;;;;0.00;0.00;;;;;-146.67;30.08;74240.38;5061975;28;61767;-82
2023/05/29 01:09:53;;;;;;;;;0.00;0.00;;;;;-146.67;30.01;74240.38;5044512;28;61886;-82
2023/05/29 01:12:49;;;;;;;;;0.00;0.00;;;;;-146.67;30.13;74230.41;5060573;28;61778;-80
2023/05/29 01:15:30;;;;;;;;;0.00;0.00;;;;;-146.67;30.32;74244.38;5062274;28;62227;-83
2023/05/29 01:18:08;;;;;;;;;0.00;0.00;;;;;-146.67;30.34;74250.38;5043874;28;61882;-82
2023/05/29 01:20:48;;;;;;;;;0.00;0.00;;;;;-146.67;30.24;74252.34;5062072;28;61923;-82
2023/05/29 01:23:51;;;;;;;;;0.00;0.00;;;;;-146.67;30.33;74256.34;5061795;28;61849;-83
2023/05/29 01:26:35;;;;;;;;;0.00;0.00;;;;;-146.67;30.06;74260.34;5043634;28;62083;-83
2023/05/29 01:29:02;;;;;;;;;0.00;0.00;;;;;-146.67;30.35;74264.34;5023370;28;61924;-83
2023/05/29 01:31:28;;;;;;;;;0.00;0.00;;;;;-146.67;29.95;74266.34;5024026;28;62119;-83
2023/05/29 01:33:55;;;;;;;;;0.00;0.00;;;;;-146.67;30.39;74272.31;5023489;28;63576;-83
2023/05/29 01:36:21;;;;;;;;;0.00;0.00;;;;;-146.67;30.34;74272.31;5023594;28;62449;-83
2023/05/29 01:38:49;;;;;;;;;0.00;0.00;;;;;-146.67;30.31;74282.31;5044131;28;62002;-83
2023/05/29 01:41:16;;;;;;;;;0.00;0.00;;;;;-146.67;30.25;74278.31;5054907;28;61758;-82
2023/05/29 01:43:44;;;;;;;;;0.00;0.00;;;;;-146.67;30.27;74272.31;5064334;28;62704;-83
2023/05/29 01:46:11;;;;;;;;;0.00;0.00;;;;;-146.67;30.28;74280.31;5065298;28;61748;-82
2023/05/29 01:48:36;;;;;;;;;0.00;0.00;;;;;-146.67;30.76;74284.28;5064965;28;61825;-82
2023/05/29 01:51:02;;;;;;;;;0.00;0.00;;;;;-146.67;30.34;74286.28;5065458;28;62095;-83
2023/05/29 01:53:27;;;;;;;;;0.00;0.00;;;;;-146.67;30.40;74288.28;5063154;28;63500;-82
2023/05/29 01:55:53;;;;;;;;;0.00;0.00;;;;;-146.67;30.57;74294.28;5064858;28;62346;-82
2023/05/29 01:58:21;;;;;;;;;0.00;0.00;;;;;-146.67;30.75;74302.25;5064616;28;62407;-83
2023/05/29 02:00:47;;;;;;;;;0.00;0.00;;;;;-146.67;30.49;74302.25;5047257;28;62416;-83
2023/05/29 02:03:12;;;;;;;;;0.00;0.00;;;;;-146.67;31.20;74326.22;5064637;28;61925;-82
2023/05/29 02:05:38;;;;;;;;;0.00;0.00;;;;;-146.67;30.84;74320.22;5064754;28;61735;-82
2023/05/29 02:08:03;;;;;;;;;0.00;0.00;;;;;-146.67;30.65;74328.22;5065179;28;62649;-83
2023/05/29 02:10:30;;;;;;;;;0.00;0.00;;;;;-146.67;30.77;74328.22;5064324;28;61906;-82
2023/05/29 02:12:57;;;;;;;;;0.00;0.00;;;;;-146.67;30.73;74328.22;5064450;28;61942;-82
2023/05/29 02:15:22;;;;;;;;;0.00;0.00;;;;;-146.67;30.82;74324.22;5057546;28;61907;-83
2023/05/29 02:17:49;;;;;;;;;10.75;7.50;;;;;-146.67;31.21;74332.22;5026228;28;62290;-83
2023/05/29 02:20:15;;;;;;;;;0.00;0.00;;;;;-146.67;30.49;74336.19;5044775;28;61947;-82
2023/05/29 02:22:41;;;;;;;;;0.00;0.00;;;;;-146.67;30.94;74338.19;5043957;28;61956;-82
2023/05/29 02:25:07;;;;;;;;;0.00;0.00;;;;;-146.67;30.77;74348.19;5044373;28;61892;-82
2023/05/29 02:27:32;;;;;;;;;0.00;0.00;;;;;-146.67;31.01;74354.16;5043996;28;61772;-83
2023/05/29 02:29:58;;;;;;;;;0.00;0.00;;;;;-146.67;30.97;74366.16;5045061;28;61955;-83
2023/05/29 02:32:24;;;;;;;;;0.00;0.00;;;;;-146.67;31.20;74368.16;5044010;28;63143;-83
2023/05/29 02:34:49;;;;;;;;;0.00;0.00;;;;;-146.67;31.23;74380.13;5064184;28;61906;-83
2023/05/29 02:37:15;;;;;;;;;0.00;0.00;;;;;-146.67;31.59;74380.13;5064819;28;61880;-83
2023/05/29 02:39:40;;;;;;;;;0.00;0.00;;;;;-146.67;31.28;74380.13;5064232;28;62168;-82
2023/05/29 02:42:06;;;;;;;;;0.00;0.00;;;;;-146.67;31.34;74392.09;5045152;28;63446;-81
2023/05/29 02:44:31;;;;;;;;;0.00;0.00;;;;;-146.67;31.42;74390.09;5064320;28;61872;-82
2023/05/29 02:46:57;;;;;;;;;0.00;0.00;;;;;-146.67;31.33;74394.09;5063993;28;61997;-82
2023/05/29 02:49:22;;;;;;;;;0.00;0.00;;;;;-146.67;31.70;74396.09;5063820;28;61849;-83
2023/05/29 02:51:47;;;;;;;;;0.00;0.00;;;;;-146.67;31.73;74406.06;5063601;28;62796;-82
2023/05/29 02:54:13;;;;;;;;;0.00;0.00;;;;;-146.67;31.94;74426.03;5064164;28;61974;-82
2023/05/29 02:56:39;;;;;;;;;0.00;0.00;;;;;-146.67;31.81;74428.03;5064068;28;61943;-83
2023/05/29 02:59:04;;;;;;;;;0.00;0.00;;;;;-146.67;31.77;74428.03;5046299;28;62952;-83
2023/05/29 03:01:30;;;;;;;;;0.00;0.00;;;;;-146.67;31.88;74434.03;5063665;28;62022;-83
2023/05/29 03:03:56;;;;;;;;;0.00;0.00;;;;;-146.67;32.01;74432.03;5064182;28;61818;-83
2023/05/29 03:06:21;;;;;;;;;0.00;0.00;;;;;-146.67;31.99;74434.03;5064179;28;61920;-83
2023/05/29 03:08:48;;;;;;;;;0.00;0.00;;;;;-146.67;31.86;74444.00;5063589;28;61930;-83
2023/05/29 03:11:15;;;;;;;;;0.00;0.00;;;;;-146.67;31.83;74454.00;5063633;28;62013;-83
2023/05/29 03:13:40;;;;;;;;;0.00;0.00;;;;;-146.67;31.92;74456.00;5042140;28;61852;-82
2023/05/29 03:16:08;;;;;;;;;0.00;0.00;;;;;-146.67;31.96;74454.00;5042682;28;61880;-82
2023/05/29 03:18:33;;;;;;;;;0.00;0.00;;;;;-146.67;32.18;74457.97;5042454;28;62157;-82
2023/05/29 03:20:59;;;;;;;;;0.00;0.00;;;;;-146.67;31.99;74461.97;5046661;28;61882;-82
2023/05/29 03:23:24;;;;;;;;;0.00;0.00;;;;;-146.67;32.04;74469.97;5063866;28;61749;-82
2023/05/29 03:25:50;;;;;;;;;0.00;0.00;;;;;-146.67;32.26;74481.94;5045583;28;61925;-82
2023/05/29 03:28:16;;;;;;;;;0.00;0.00;;;;;-146.67;32.13;74475.94;5045629;28;61732;-82
2023/05/29 03:30:41;;;;;;;;;0.00;0.00;;;;;-146.67;32.14;74481.94;5063002;28;61919;-83
2023/05/29 03:33:06;;;;;;;;;0.00;0.00;;;;;-146.67;32.07;74489.94;5063570;28;61899;-82
2023/05/29 03:35:32;;;;;;;;;0.00;0.00;;;;;-146.67;32.39;74499.91;5045813;28;62129;-83
2023/05/29 03:37:58;;;;;;;;;0.00;0.00;;;;;-146.67;32.37;74501.91;5041853;28;62202;-82
2023/05/29 03:40:23;;;;;;;;;0.00;0.00;;;;;-146.67;32.67;74515.88;5043936;28;63734;-82
2023/05/29 03:42:49;;;;;;;;;0.00;0.00;;;;;-146.67;32.50;74507.91;5062889;28;61928;-83
2023/05/29 03:45:14;;;;;;;;;0.00;0.00;;;;;-146.67;32.44;74519.88;5045812;28;62114;-82
2023/05/29 03:47:40;;;;;;;;;0.00;0.00;;;;;-146.67;32.37;74511.88;5044941;28;62050;-82
2023/05/29 03:50:06;;;;;;;;;0.00;0.00;;;;;-146.67;32.67;74521.88;5041506;28;63432;-82
2023/05/29 03:52:31;;;;;;;;;0.00;0.00;;;;;-146.67;32.64;74515.88;5041680;28;62045;-82
2023/05/29 03:54:57;;;;;;;;;0.00;0.00;;;;;-146.67;32.51;74511.88;5041810;28;61952;-82
2023/05/29 03:57:22;;;;;;;;;0.00;0.00;;;;;-146.67;32.60;74517.88;5043282;28;62057;-82
2023/05/29 03:59:47;;;;;;;;;0.00;0.00;;;;;-146.67;32.62;74535.84;5041324;28;63820;-82
2023/05/29 04:02:13;;;;;;;;;0.00;0.00;;;;;-146.67;32.79;74531.84;5041330;28;61916;-82
2023/05/29 04:04:39;;;;;;;;;0.00;0.00;;;;;-146.67;32.91;74537.84;5045294;28;61944;-82
2023/05/29 04:07:06;;;;;;;;;0.00;0.00;;;;;-146.67;32.70;74539.84;5062773;28;61824;-82
2023/05/29 04:09:32;;;;;;;;;0.00;0.00;;;;;-146.67;32.84;74537.84;5062538;28;61986;-82
2023/05/29 04:11:57;;;;;;;;;0.00;0.00;;;;;-146.67;32.81;74555.81;5044823;28;61797;-83
2023/05/29 04:14:23;;;;;;;;;0.00;0.00;;;;;-146.67;32.97;74569.78;5062812;28;62213;-82
2023/05/29 04:16:48;;;;;;;;;0.00;0.00;;;;;-146.67;32.92;74565.78;5062782;28;61902;-80
2023/05/29 04:19:14;;;;;;;;;0.00;0.00;;;;;-146.67;32.83;74551.81;5044238;28;63923;-83
2023/05/29 04:21:39;;;;;;;;;0.00;0.00;;;;;-146.67;32.76;74553.81;5062662;28;61862;-82
2023/05/29 04:24:05;;;;;;;;;0.00;0.00;;;;;-146.67;32.56;74555.81;5044650;28;62072;-82
2023/05/29 04:26:32;;;;;;;;;0.00;0.00;;;;;-146.67;32.88;74557.81;5044502;28;62166;-82
2023/05/29 04:28:57;;;;;;;;;0.00;0.00;;;;;-146.67;32.78;74569.78;5043642;28;64021;-82
2023/05/29 04:31:25;;;;;;;;;0.00;0.00;;;;;-146.67;32.83;74567.78;5063072;28;62181;-82
2023/05/29 04:33:54;;;;;;;;;0.00;0.00;;;;;-146.67;32.88;74567.78;5044725;28;62331;-82
2023/05/29 04:36:23;;;;;;;;;0.00;0.00;;;;;-146.67;32.87;74563.78;5062640;28;61972;-82
2023/05/29 04:38:50;;;;;;;;;0.00;0.00;;;;;-146.67;32.72;74559.81;5062360;28;62654;-82
2023/05/29 04:41:16;;;;;;;;;0.00;0.00;;;;;-146.67;32.72;74573.78;5058985;28;61807;-82
2023/05/29 04:43:41;;;;;;;;;12.50;10.00;;;;;-146.67;32.91;74575.78;5042166;28;62026;-82
2023/05/29 04:46:12;;;;;;;;;0.00;0.00;;;;;-146.67;32.68;74571.78;5037303;28;62573;-82
2023/05/29 04:48:40;;;;;;;;;0.00;0.00;;;;;-146.67;32.93;74583.75;5060208;28;64512;-82
2023/05/29 04:51:06;;;;;;;;;0.00;0.00;;;;;-146.67;32.99;74575.78;5044075;28;61882;-82
2023/05/29 04:53:31;;;;;;;;;0.00;0.00;;;;;-146.67;32.78;74581.75;5044413;28;61816;-82
2023/05/29 04:55:57;;;;;;;;;0.00;0.00;;;;;-146.67;32.81;74577.78;5043565;28;61936;-82
2023/05/29 04:58:25;;;;;;;;;0.00;0.00;;;;;-146.67;32.87;74565.78;5059589;28;61766;-82
2023/05/29 05:00:51;;;;;;;;;0.00;0.00;;;;;-146.67;32.78;74569.78;5060963;28;61959;-82
2023/05/29 05:03:16;;;;;;;;;0.00;0.00;;;;;-146.67;32.81;74559.81;5061680;28;62192;-82
2023/05/29 05:05:43;;;;;;;;;0.00;0.00;;;;;-146.67;32.49;74537.84;5061109;28;62423;-82
2023/05/29 05:08:09;;;;;;;;;0.00;0.00;;;;;-146.67;32.69;74547.81;5060620;28;62191;-82
2023/05/29 05:10:35;;;;;;;;;0.00;0.00;;;;;-146.67;32.79;74539.84;5062239;28;61783;-82
2023/05/29 05:13:02;;;;;;;;;0.00;0.00;;;;;-146.67;32.46;74533.84;5043244;28;61983;-80
2023/05/29 05:15:28;;;;;;;;;0.00;0.00;;;;;-146.67;32.47;74525.88;5062537;28;61961;-82
2023/05/29 05:17:53;;;;;;;;;0.00;0.00;;;;;-146.67;32.49;74513.88;5061170;28;61987;-82
2023/05/29 05:20:19;;;;;;;;;0.00;0.00;;;;;-146.67;32.36;74511.88;5043272;28;61886;-82
2023/05/29 05:22:45;;;;;;;;;0.00;0.00;;;;;-146.67;32.38;74509.88;5062306;28;61903;-83
2023/05/29 05:25:11;;;;;;;;;0.00;0.00;;;;;-146.67;32.13;74495.91;5044034;28;61839;-82
2023/05/29 05:27:37;;;;;;;;;0.00;0.00;;;;;-146.67;31.90;74495.91;5061125;28;61919;-82
2023/05/29 05:30:06;;;;;;;;;0.00;0.00;;;;;-146.67;32.23;74495.91;5062291;28;61820;-82
2023/05/29 05:32:32;;;;;;;;;0.00;0.00;;;;;-146.67;32.16;74489.94;5040703;28;62064;-82
2023/05/29 05:34:57;;;;;;;;;0.00;0.00;;;;;-146.67;31.85;74475.94;5044882;28;61946;-82
2023/05/29 05:37:23;;;;;;;;;0.00;0.00;;;;;-146.67;31.90;74454.00;5042788;28;63547;-82
2023/05/29 05:39:50;;;;;;;;;0.00;0.00;;;;;-146.67;31.63;74424.03;5062110;28;61738;-82
2023/05/29 05:42:16;;;;;;;;;0.00;0.00;;;;;-146.67;31.18;74396.09;5061107;28;62051;-82
2023/05/29 05:44:41;;;;;;;;;0.00;0.00;;;;;-146.67;31.33;74362.16;5062142;28;62337;-82
2023/05/29 05:47:07;;;;;;;;;0.00;0.00;;;;;-146.67;30.81;74324.22;5060668;28;62096;-82
2023/05/29 05:49:35;;;;;;;;;0.00;0.00;;;;;-146.67;30.70;74302.25;5042812;28;61838;-82
2023/05/29 05:52:00;;;;;;;;;0.00;0.00;;;;;-146.67;30.60;74292.28;5043878;28;61832;-82
2023/05/29 05:54:25;;;;;;;;;0.00;0.00;;;;;-146.67;30.09;74248.38;5043617;28;62105;-82
2023/05/29 05:56:51;;;;;;;;;0.00;0.00;;;;;-146.67;30.24;74240.38;5061125;28;61905;-82
2023/05/29 05:59:16;;;;;;;;;0.00;0.00;;;;;-146.67;30.11;74270.31;5061433;28;61863;-82
2023/05/29 06:01:42;;;;;;;;;0.00;0.00;;;;;-146.67;30.56;74298.28;5061644;28;61815;-82
2023/05/29 06:04:08;;;;;;;;;0.00;0.00;;;;;-146.67;30.18;74292.28;5061069;28;61704;-82
2023/05/29 06:06:34;;;;;;;;;0.00;0.00;;;;;-146.67;30.32;74282.31;5060852;28;61868;-82
2023/05/29 06:08:59;;;;;;;;;0.00;0.00;;;;;-146.67;30.33;74270.31;5043484;28;61855;-82
2023/05/29 06:11:25;;;;;;;;;0.00;0.00;;;;;-146.67;30.01;74258.34;5061358;28;62280;-82
2023/05/29 06:13:51;;;;;;;;;0.00;0.00;;;;;-146.67;30.12;74230.41;5061523;28;61852;-82
2023/05/29 06:16:17;;;;;;;;;0.00;0.00;;;;;-146.67;29.95;74196.47;5060838;28;61898;-82
2023/05/29 06:18:42;;;;;;;;;0.00;0.00;;;;;-146.67;29.49;74136.56;5060736;28;61776;-82
2023/05/29 06:21:09;;;;;;;;;0.00;0.00;;;;;-146.67;28.79;74036.75;5039977;28;61753;-82
2023/05/29 06:23:36;;;;;;;;;0.00;0.00;;;;;-146.67;28.48;74006.81;5039868;28;62276;-82
2023/05/29 06:26:03;;;;;;;;;0.00;0.00;;;;;-146.67;28.36;74018.78;5041662;28;64208;-81
2023/05/29 06:28:28;;;;;;;;;0.00;0.00;;;;;-146.67;28.40;74024.78;5044291;28;61841;-82
2023/05/29 06:30:53;;;;;;;;;0.00;0.00;;;;;-146.67;28.63;74046.75;5035142;28;61871;-82
2023/05/29 06:33:21;;;;;;;;;0.00;0.00;;;;;-146.67;28.32;74008.81;5024610;28;61685;-82
2023/05/29 06:35:46;;;;;;;;;0.00;0.00;;;;;-146.67;28.75;74072.69;5023917;28;62727;-82
2023/05/29 06:38:11;;;;;;;;;0.00;0.00;;;;;-146.67;29.23;74128.59;5024573;28;61930;-82
2023/05/29 06:40:37;;;;;;;;;0.00;0.00;;;;;-146.67;29.24;74154.53;5039433;28;61898;-82
2023/05/29 06:43:02;;;;;;;;;0.00;0.00;;;;;-146.67;29.38;74176.50;5026305;28;62040;-84
2023/05/29 06:45:28;;;;;;;;;0.00;0.00;;;;;-146.67;29.51;74196.47;5022271;28;64765;-83
2023/05/29 06:47:55;;;;;;;;;0.00;0.00;;;;;-146.67;29.71;74208.44;5023395;28;62024;-83
2023/05/29 06:50:20;;;;;;;;;0.00;0.00;;;;;-146.67;29.84;74218.41;5038516;28;62034;-84
2023/05/29 06:52:45;;;;;;;;;0.00;0.00;;;;;-146.67;29.89;74226.41;5042678;28;61931;-84
2023/05/29 06:55:11;;;;;;;;;0.00;0.00;;;;;-146.67;29.97;74242.38;5043741;28;62021;-84
2023/05/29 06:57:36;;;;;;;;;0.00;0.00;;;;;-146.67;29.58;74254.34;5043377;28;61738;-84
2023/05/29 07:00:05;;;;;;;;;0.00;0.00;;;;;-146.67;29.94;74266.34;5042938;28;62203;-84
2023/05/29 07:02:30;;;;;;;;;0.00;0.00;;;;;-146.67;30.29;74270.31;5039677;28;62023;-85
2023/05/29 07:04:56;;;;;;;;;0.00;0.00;;;;;-146.67;29.81;74268.31;5023620;28;61909;-86
2023/05/29 07:07:21;;;;;;;;;0.00;0.00;;;;;-146.67;29.91;74274.31;5030594;28;62026;-83
2023/05/29 07:09:46;;;;;;;;;0.00;0.00;;;;;-146.67;30.26;74276.31;5033509;28;62087;-83
2023/05/29 07:12:12;;;;;;;;;0.00;0.00;;;;;-146.67;30.00;74272.31;5033200;28;61840;-83
2023/05/29 07:14:40;;;;;;;;;0.00;0.00;;;;;-146.67;29.72;74258.34;5027880;28;63702;-85
2023/05/29 07:17:05;;;;;;;;;0.00;0.00;;;;;-146.67;30.05;74252.34;5024307;28;61980;-84
2023/05/29 07:19:33;;;;;;;;;1.33;0.00;;;;;-146.67;30.12;74270.31;5047019;28;61736;-80
2023/05/29 07:21:59;;;;;;;;;0.00;0.00;;;;;-146.67;29.89;74284.28;5049417;28;61927;-80
2023/05/29 07:24:24;;;;;;;;;0.00;0.00;;;;;-146.67;30.23;74288.28;5049744;28;62098;-81
2023/05/29 07:26:50;;;;;;;;;0.00;0.00;;;;;-146.67;30.40;74280.31;5055994;28;62449;-82
2023/05/29 07:29:17;;;;;;;;;0.00;0.00;;;;;-146.67;30.04;74300.28;5054802;28;61856;-82
2023/05/29 07:31:44;;;;;;;;;0.00;0.00;;;;;-146.67;30.12;74298.28;5041253;28;62158;-82
2023/05/29 07:34:10;;;;;;;;;0.00;0.00;;;;;-146.67;30.23;74306.25;5033130;28;64094;-81
2023/05/29 07:36:35;;;;;;;;;0.00;0.00;;;;;-146.67;30.10;74320.22;5062931;28;61699;-82
2023/05/29 07:39:02;;;;;;;;;0.00;0.00;;;;;-146.67;30.00;74320.22;5041378;28;62099;-82
2023/05/29 07:41:27;;;;;;;;;0.00;0.00;;;;;-146.67;30.28;74334.22;5054244;28;61701;-82
2023/05/29 07:43:53;;;;;;;;;0.00;0.00;;;;;-146.67;30.05;74336.19;5043588;28;64512;-81
2023/05/29 07:46:19;;;;;;;;;0.00;0.00;;;;;-146.67;30.61;74358.16;5062612;28;62031;-78
2023/05/29 07:48:46;;;;;;;;;0.00;0.00;;;;;-146.67;30.60;74352.19;5062018;28;61926;-81
2023/05/29 07:51:11;;;;;;;;;0.00;0.00;;;;;-146.67;30.51;74346.19;5045257;28;61785;-79
2023/05/29 07:53:37;;;;;;;;;0.00;0.00;;;;;-146.67;30.43;74360.16;5062612;28;62960;-80
2023/05/29 07:56:02;;;;;;;;;0.00;0.00;;;;;-146.67;30.56;74380.13;5056856;28;62067;-81
2023/05/29 07:58:28;;;;;;;;;0.00;0.00;;;;;-146.67;30.49;74362.16;5059702;28;61776;-83
2023/05/29 08:00:56;;;;;;;;;0.00;0.00;;;;;-146.67;30.83;74380.13;5047844;28;61791;-82
2023/05/29 08:03:30;;;;;;;;;0.00;0.00;;;;;-146.67;30.73;74386.13;5062461;28;63942;-82
2023/05/29 08:05:56;;;;;;;;;0.00;0.00;;;;;-146.67;30.85;74388.09;5062888;28;62049;-80
2023/05/29 08:08:21;;;;;;;;;0.00;0.00;;;;;-146.67;31.07;74372.13;5063028;28;62223;-80
2023/05/29 08:10:47;;;;;;;;;0.00;0.00;;;;;-146.67;30.82;74360.16;5040596;28;61926;-80
2023/05/29 08:13:12;;;;;;;;;0.00;0.00;;;;;-146.67;30.71;74344.19;5045064;28;61828;-80
2023/05/29 08:15:40;;;;;;;;;0.00;0.00;;;;;-146.67;30.57;74332.22;5051597;28;61908;-82
2023/05/29 08:18:10;;;;;;;;;0.00;0.00;;;;;-146.67;30.30;74326.22;5048918;28;61839;-82
2023/05/29 08:20:37;;;;;;;;;0.00;0.00;;;;;-146.67;30.59;74320.22;5049265;28;61905;-83
2023/05/29 08:23:04;;;;;;;;;0.00;0.00;;;;;-146.67;30.68;74316.25;5049636;28;61829;-89
2023/05/29 08:25:30;;;;;;;;;0.00;0.00;;;;;-146.67;30.39;74318.25;5063206;28;62109;-88
2023/05/29 08:27:55;;;;;;;;;0.00;0.00;;;;;-146.67;30.83;74386.13;5053045;28;62090;-85
2023/05/29 08:30:21;;;;;;;;;1.00;1.00;;;;;-146.67;31.01;74428.03;5060679;28;61857;-81
2023/05/29 08:32:47;;;;;;;;;0.67;0.00;;;;;-146.67;30.99;74432.03;5039800;28;64102;-84
2023/05/29 08:35:12;;;;;;;;;0.00;0.00;;;;;-146.67;30.82;74424.03;5038991;28;62395;-85
2023/05/29 08:37:38;;;;;;;;;1.00;1.00;;;;;-146.67;31.48;74428.03;5022307;28;61957;-86
2023/05/29 08:40:08;;;;;;;;;0.00;0.00;;;;;-146.67;31.08;74418.06;5041668;28;62139;-88
2023/05/29 08:42:39;;;;;;;;;0.00;0.00;;;;;-146.67;30.90;74390.09;5053982;28;62127;-89
2023/05/29 08:45:12;;;;;;;;;0.00;0.00;;;;;-146.67;31.05;74366.16;5055703;28;62276;-89
2023/05/29 08:47:49;;;;;;;;;0.00;0.00;;;;;-146.67;30.85;74348.19;5060089;28;62230;-88
2023/05/29 08:50:17;;;;;;;;;0.00;0.00;;;;;-146.67;30.59;74332.22;5059537;28;62019;-89
2023/05/29 08:52:44;;;;;;;;;0.00;0.00;;;;;-146.67;30.51;74330.22;5055582;28;62013;-88
2023/05/29 08:55:14;;;;;;;;;0.00;0.00;;;;;-146.67;30.34;74324.22;5060678;28;61929;-88
2023/05/29 08:57:43;;;;;;;;;0.00;0.00;;;;;-146.67;30.69;74312.25;5057189;28;62188;-88
2023/05/29 09:00:12;;;;;;;;;0.00;0.00;;;;;-146.67;30.29;74298.28;5058898;28;61865;-87
2023/05/29 09:02:39;;;;;;;;;0.00;0.00;;;;;-146.67;30.37;74290.28;5058829;28;62196;-88
2023/05/29 09:05:10;;;;;;;;;0.00;0.00;;;;;-146.67;30.47;74282.31;5057972;28;61875;-86
2023/05/29 09:07:40;;;;;;;;;0.00;0.00;;;;;-146.67;30.35;74270.31;5057958;28;61708;-88
2023/05/29 09:10:07;;;;;;;;;0.00;0.00;;;;;-146.67;30.17;74270.31;5054992;28;62263;-89
2023/05/29 09:12:34;;;;;;;;;0.00;0.00;;;;;-146.67;30.52;74256.34;5060242;28;61896;-86
2023/05/29 09:15:04;;;;;;;;;0.00;0.00;;;;;-146.67;29.79;74258.34;5043519;28;61851;-89
2023/05/29 09:17:33;;;;;;;;;0.00;0.00;;;;;-146.67;30.06;74252.34;5042279;28;62014;-89
2023/05/29 09:20:00;;;;;;;;;0.00;0.00;;;;;-146.67;29.97;74252.34;5054776;28;61966;-89
2023/05/29 09:22:26;;;;;;;;;0.00;0.00;;;;;-146.67;29.72;74256.34;5041012;28;61954;-88
2023/05/29 09:24:52;;;;;;;;;0.00;0.00;;;;;-146.67;29.88;74236.38;5038254;28;61798;-87
2023/05/29 09:27:18;;;;;;;;;0.00;0.00;;;;;-146.67;29.97;74230.41;5059464;28;61877;-88
2023/05/29 09:29:45;;;;;;;;;0.00;0.00;;;;;-146.67;29.83;74232.41;5040923;28;62240;-90
2023/05/29 09:32:20;;;;;;;;;0.00;0.00;;;;;-146.67;29.97;74212.44;5058686;28;62086;-88
2023/05/29 09:34:46;;;;;;;;;0.00;0.00;;;;;-146.67;29.81;74206.44;5056265;28;62092;-88
2023/05/29 09:37:12;;;;;;;;;0.00;0.00;;;;;-146.67;29.93;74204.44;5060118;28;61907;-89
2023/05/29 09:39:51;;;;;;;;;0.00;0.00;;;;;-146.67;29.77;74200.44;5055328;28;61784;-88
2023/05/29 09:42:17;;;;;;;;;0.00;0.00;;;;;-146.67;30.01;74196.47;5057849;28;61877;-88
2023/05/29 09:44:53;;;;;;;;;0.00;0.00;;;;;-146.67;29.99;74184.47;5058200;28;62105;-89
2023/05/29 09:47:21;;;;;;;;;0.00;0.00;;;;;-146.67;29.82;74176.50;5039859;28;62027;-89
2023/05/29 09:49:53;;;;;;;;;0.00;0.00;;;;;-146.67;29.68;74156.53;5039471;28;61891;-87
2023/05/29 09:52:22;;;;;;;;;0.00;0.00;;;;;-146.67;29.57;74152.53;5058054;28;61871;-87
2023/05/29 09:54:48;;;;;;;;;0.00;0.00;;;;;-146.67;29.47;74154.53;5059315;28;61912;-86
2023/05/29 09:57:18;;;;;;;;;0.00;0.00;;;;;-146.67;29.55;74160.53;5054821;28;61893;-86
2023/05/29 09:59:48;;;;;;;;;0.00;0.00;;;;;-146.67;29.70;74128.59;5060773;28;61945;-88
2023/05/29 10:02:16;;;;;;;;;0.00;0.00;;;;;-146.67;29.66;74148.56;5062010;28;62087;-87
2023/05/29 10:04:44;;;;;;;;;0.00;0.00;;;;;-146.67;29.48;74126.59;5044273;28;61860;-86
2023/05/29 10:07:35;;;;;;;;;0.00;0.00;;;;;-146.67;29.58;74118.59;5049184;28;61979;-86
2023/05/29 10:10:09;;;;;;;;;0.00;0.00;;;;;-146.67;29.41;74102.63;5041228;28;61776;-83
2023/05/29 10:12:38;;;;;;;;;0.00;0.00;;;;;-146.67;29.07;74076.69;5054099;28;62715;-83
2023/05/29 10:15:16;;;;;;;;;0.00;0.00;;;;;-146.67;29.02;74052.72;5041150;28;61815;-83
2023/05/29 10:18:19;;;;;;;;;2.67;2.67;;;;;-146.67;29.11;74032.75;5061797;28;62210;-83
2023/05/29 10:20:53;;;;;;;;;0.00;0.00;;;;;-146.67;28.66;74020.78;5044902;28;61894;-83
2023/05/29 10:23:23;;;;;;;;;0.00;0.00;;;;;-146.67;29.17;74024.78;5061019;28;61929;-82
2023/05/29 10:25:53;;;;;;;;;0.00;0.00;;;;;-146.67;28.96;74014.81;5046194;28;62108;-83
2023/05/29 10:28:25;;;;;;;;;0.00;0.00;;;;;-146.67;28.91;73988.84;5064643;28;62013;-84
2023/05/29 10:31:10;;;;;;;;;0.00;0.00;;;;;-146.67;28.77;73984.84;5043840;28;62222;-83
2023/05/29 10:33:58;;;;;;;;;0.00;0.00;;;;;-146.67;28.58;73966.91;5042221;28;63687;-82
2023/05/29 10:36:35;;;;;;;;;0.00;0.00;;;;;-146.67;28.55;73948.94;5042867;28;61872;-83
2023/05/29 10:39:01;;;;;;;;;0.00;0.00;;;;;-146.67;28.31;73970.88;5042842;28;62020;-82
2023/05/29 10:41:29;;;;;;;;;0.00;0.00;;;;;-146.67;28.44;73958.91;5063524;28;61988;-83
2023/05/29 10:44:02;;;;;;;;;0.00;0.00;;;;;-146.67;28.31;73950.94;5044105;28;63355;-83
2023/05/29 10:46:49;;;;;;;;;0.00;0.00;;;;;-146.67;28.25;73938.94;5062006;28;61799;-82
2023/05/29 10:49:21;;;;;;;;;0.00;0.00;;;;;-146.67;28.34;73922.97;5042850;28;61994;-84
2023/05/29 10:51:50;;;;;;;;;0.00;0.00;;;;;-146.67;28.37;73897.03;5064169;28;61867;-83
2023/05/29 10:54:16;;;;;;;;;0.00;0.00;;;;;-146.67;28.10;73885.06;5062798;28;63450;-84
2023/05/29 10:56:52;;;;;;;;;0.00;0.00;;;;;-146.67;28.22;73881.06;5046223;28;61885;-83
2023/05/29 10:59:20;;;;;;;;;0.00;0.00;;;;;-146.67;28.16;73879.06;5026139;28;62218;-85
2023/05/29 11:01:47;;;;;;;;;0.00;0.00;;;;;-146.67;28.04;73857.09;5044697;28;62010;-84
2023/05/29 11:04:26;;;;;;;;;0.00;0.00;;;;;-146.67;27.79;73825.16;5043444;28;61970;-84
2023/05/29 11:06:53;;;;;;;;;17.00;12.75;;;;;-146.67;27.50;73805.22;5036893;28;61943;-84
2023/05/29 11:09:39;;;;;;;;;0.00;0.00;;;;;-146.67;27.44;73779.25;5058716;28;62001;-85
2023/05/29 11:12:12;;;;;;;;;0.00;0.00;;;;;-146.67;27.73;73769.28;5060897;28;62166;-86
2023/05/29 11:14:48;;;;;;;;;0.00;0.00;;;;;-146.67;27.41;73763.28;5042134;28;63788;-85
2023/05/29 11:17:38;;;;;;;;;0.00;0.00;;;;;-146.67;27.35;73753.31;5041524;28;62424;-83
2023/05/29 11:20:09;;;;;;;;;0.00;0.00;;;;;-146.67;27.40;73747.31;5060563;28;61981;-82